Presidente Lucena, Brazil
Current Conditions -  °F | °C
As of 12:00 PM on Tuesday 21 Oct 2014 (Local Time) from SBCO Reporting Station
Broken Clouds Broken Clouds  
Wind Chill: 70°   Ceiling: 3000
Heat Index: 70°   Visibility: 6mi
Dew Point: 55°   Wind: 12mph
Humidity: 60%   Direction: 140°SE
Pressure: 30.21"   Gusts: NA
Location:  29.52°S, 51.18°W
Report Text: SBCO 211400Z 14010KT 9999 BKN030 21/13 Q1023
Loading
Personal Weather Stations






























Interactive Weather Map
Tropical Storm Tracking
New forecast layout! Learn more

10-Day Weather Forecast

Advertisements
Track Severe Weather on mobile